Time;durP1;ratioP1;P1;durP2;ratioP2;P2;SDS_P1;SDS_P2;PMS_P1;PMS_P2;Temp;Humidity;BMP_temperature;BMP_pressure;BME280_temperature;BME280_humidity;BME280_pressure;Samples;Min_cycle;Max_cycle;Signal;HPM_P1;HPM_P2
2023/07/19 00:00:12;;;;;;;;;;;;;;;;;;1271007;23;19987;-20
2023/07/19 00:00:43;;;;;;;;;;;;;;;;;;1271226;23;19954;-21
2023/07/19 00:01:13;;;;;;;;;;;;;;;;;;1271451;23;20394;-17
2023/07/19 00:01:43;;;;;;;;;;;;;;;;;;1271525;23;19940;-20
2023/07/19 00:02:16;;;;;;;;;;;;;;;;;;1271286;23;19905;-20
2023/07/19 00:02:47;;;;;;;;;;;;;;;;;;1271402;23;20423;-20
2023/07/19 00:03:17;;;;;;;;;;;;;;;;;;1271601;23;19905;-21
2023/07/19 00:03:47;;;;;;;;;;;;;;;;;;1271375;23;19911;-20
2023/07/19 00:04:17;;;;;;;;;;;;;;;;;;1271353;23;19912;-19
2023/07/19 00:04:48;;;;;;;;;;;;;;;;;;1271472;23;20340;-21
2023/07/19 00:05:18;;;;;;;;;;;;;;;;;;1271429;23;19908;-18
2023/07/19 00:05:48;;;;;;;;;;;;;;;;;;1271329;23;19912;-21
2023/07/19 00:06:18;;;;;;;;;;;;;;;;;;1270999;23;19926;-21
2023/07/19 00:06:49;;;;;;;;;;;;;;;;;;1271347;23;19928;-18
2023/07/19 00:07:19;;;;;;;;;;;;;;;;;;1271420;23;19995;-21
2023/07/19 00:07:49;;;;;;;;;;;;;;;;;;1271226;23;19958;-20
2023/07/19 00:08:22;;;;;;;;;;;;;;;;;;1271425;23;19912;-20
2023/07/19 00:08:52;;;;;;;;;;;;;;;;;;1271156;23;20325;-18
2023/07/19 00:09:22;;;;;;;;;;;;;;;;;;1271582;23;19989;-22
2023/07/19 00:09:52;;;;;;;;;;;;;;;;;;1271360;23;19987;-21
2023/07/19 00:10:23;;;;;;;;;;;;;;;;;;1271278;23;19911;-21
2023/07/19 00:10:53;;;;;;;;;;;;;;;;;;1271339;23;19904;-19
2023/07/19 00:11:24;;;;;;;;;;;;;;;;;;1271606;23;19904;-19
2023/07/19 00:11:54;;;;;;;;;;;;;;;;;;1271505;23;19912;-20
2023/07/19 00:12:24;;;;;;;;;;;;;;;;;;1271227;23;19911;-22
2023/07/19 00:12:54;;;;;;;;;;;;;;;;;;1271293;23;19905;-21
2023/07/19 00:13:25;;;;;;;;;;;;;;;;;;1271582;23;19905;-22
2023/07/19 00:13:55;;;;;;;;;;;;;;;;;;1271379;23;20333;-20
2023/07/19 00:14:25;;;;;;;;;;;;;;;;;;1271435;23;20388;-21
2023/07/19 00:14:55;;;;;;;;;;;;;;;;;;1271346;23;19991;-19
2023/07/19 00:15:26;;;;;;;;;;;;;;;;;;1271492;23;19908;-22
2023/07/19 00:15:56;;;;;;;;;;;;;;;;;;1271404;23;19923;-21
2023/07/19 00:16:27;;;;;;;;;;;;;;;;;;1271324;23;19924;-21
2023/07/19 00:16:58;;;;;;;;;;;;;;;;;;1271452;23;19912;-22
2023/07/19 00:17:28;;;;;;;;;;;;;;;;;;1271528;23;19905;-18
2023/07/19 00:17:58;;;;;;;;;;;;;;;;;;1271289;23;19905;-21
2023/07/19 00:18:28;;;;;;;;;;;;;;;;;;1271395;23;19928;-21
2023/07/19 00:18:59;;;;;;;;;;;;;;;;;;1271237;23;19940;-19
2023/07/19 00:19:29;;;;;;;;;;;;;;;;;;1271539;23;19995;-21
2023/07/19 00:19:59;;;;;;;;;;;;;;;;;;1271325;23;19936;-16
2023/07/19 00:20:30;;;;;;;;;;;;;;;;;;1271231;23;19909;-19
2023/07/19 00:21:00;;;;;;;;;;;;;;;;;;1271174;23;19954;-19
2023/07/19 00:21:31;;;;;;;;;;;;;;;;;;1271566;23;19904;-18
2023/07/19 00:22:01;;;;;;;;;;;;;;;;;;1271244;23;20002;-22
2023/07/19 00:22:31;;;;;;;;;;;;;;;;;;1271285;23;19983;-21
2023/07/19 00:23:01;;;;;;;;;;;;;;;;;;1271266;23;19953;-20
2023/07/19 00:23:31;;;;;;;;;;;;;;;;;;1271460;23;19904;-21
2023/07/19 00:24:02;;;;;;;;;;;;;;;;;;1270948;23;19905;-19
2023/07/19 00:24:32;;;;;;;;;;;;;;;;;;1271388;23;19912;-21
2023/07/19 00:25:02;;;;;;;;;;;;;;;;;;1271323;23;19908;-20
2023/07/19 00:25:33;;;;;;;;;;;;;;;;;;1271389;23;19916;-19
2023/07/19 00:26:03;;;;;;;;;;;;;;;;;;1271369;23;20325;-21
2023/07/19 00:26:33;;;;;;;;;;;;;;;;;;1271305;23;19936;-18
2023/07/19 00:27:04;;;;;;;;;;;;;;;;;;1271396;23;19988;-21
2023/07/19 00:27:34;;;;;;;;;;;;;;;;;;1271571;23;19999;-22
2023/07/19 00:28:04;;;;;;;;;;;;;;;;;;1271348;23;20026;-19
2023/07/19 00:28:34;;;;;;;;;;;;;;;;;;1271218;23;19909;-18
2023/07/19 00:29:04;;;;;;;;;;;;;;;;;;1271235;23;19911;-21
2023/07/19 00:29:35;;;;;;;;;;;;;;;;;;1271521;23;19909;-20
2023/07/19 00:30:05;;;;;;;;;;;;;;;;;;1271294;23;19985;-20
2023/07/19 00:30:36;;;;;;;;;;;;;;;;;;1271305;23;19909;-19
2023/07/19 00:31:06;;;;;;;;;;;;;;;;;;1271289;23;19905;-20
2023/07/19 00:31:36;;;;;;;;;;;;;;;;;;1271394;23;19915;-18
2023/07/19 00:32:07;;;;;;;;;;;;;;;;;;1271348;23;19904;-19
2023/07/19 00:32:37;;;;;;;;;;;;;;;;;;1271314;23;20415;-22
2023/07/19 00:33:07;;;;;;;;;;;;;;;;;;1271351;23;20249;-19
2023/07/19 00:33:37;;;;;;;;;;;;;;;;;;1271461;23;19915;-21
2023/07/19 00:34:07;;;;;;;;;;;;;;;;;;1271309;23;19904;-17
2023/07/19 00:34:38;;;;;;;;;;;;;;;;;;1271407;23;19908;-20
2023/07/19 00:35:08;;;;;;;;;;;;;;;;;;1271255;23;19911;-20
2023/07/19 00:35:39;;;;;;;;;;;;;;;;;;1271421;23;19994;-22
2023/07/19 00:36:09;;;;;;;;;;;;;;;;;;1271151;23;19944;-21
2023/07/19 00:36:39;;;;;;;;;;;;;;;;;;1271247;23;20284;-17
2023/07/19 00:37:09;;;;;;;;;;;;;;;;;;1271343;23;20218;-20
2023/07/19 00:37:40;;;;;;;;;;;;;;;;;;1271493;23;19915;-20
2023/07/19 00:38:10;;;;;;;;;;;;;;;;;;1271191;23;19904;-19
2023/07/19 00:38:40;;;;;;;;;;;;;;;;;;1271356;23;19915;-22
2023/07/19 00:39:10;;;;;;;;;;;;;;;;;;1271189;23;19954;-21
2023/07/19 00:39:41;;;;;;;;;;;;;;;;;;1271513;23;19912;-20
2023/07/19 00:40:11;;;;;;;;;;;;;;;;;;1271194;23;20304;-21
2023/07/19 00:40:41;;;;;;;;;;;;;;;;;;1271287;23;20344;-21
2023/07/19 00:41:11;;;;;;;;;;;;;;;;;;1271377;23;20245;-20
2023/07/19 00:41:41;;;;;;;;;;;;;;;;;;1271251;23;19947;-21
2023/07/19 00:42:12;;;;;;;;;;;;;;;;;;1271215;23;20325;-18
2023/07/19 00:42:42;;;;;;;;;;;;;;;;;;1271410;23;20390;-22
2023/07/19 00:43:12;;;;;;;;;;;;;;;;;;1271336;23;20314;-19
2023/07/19 00:43:43;;;;;;;;;;;;;;;;;;1271441;23;19916;-18
2023/07/19 00:44:13;;;;;;;;;;;;;;;;;;1271130;23;19905;-19
2023/07/19 00:44:43;;;;;;;;;;;;;;;;;;1271324;23;19905;-20
2023/07/19 00:45:13;;;;;;;;;;;;;;;;;;1271306;23;20362;-21
2023/07/19 00:45:43;;;;;;;;;;;;;;;;;;1271484;23;19905;-18
2023/07/19 00:46:14;;;;;;;;;;;;;;;;;;1271097;23;19905;-20
2023/07/19 00:46:44;;;;;;;;;;;;;;;;;;1271461;23;20256;-19
2023/07/19 00:47:14;;;;;;;;;;;;;;;;;;1271359;23;20241;-21
2023/07/19 00:47:44;;;;;;;;;;;;;;;;;;1271444;23;20218;-19
2023/07/19 00:48:15;;;;;;;;;;;;;;;;;;1271202;23;19905;-22
2023/07/19 00:48:46;;;;;;;;;;;;;;;;;;1271307;23;19904;-20
2023/07/19 00:49:16;;;;;;;;;;;;;;;;;;1271283;23;19912;-21
2023/07/19 00:49:46;;;;;;;;;;;;;;;;;;1271394;23;19954;-20
2023/07/19 00:50:16;;;;;;;;;;;;;;;;;;1271208;23;20000;-21
2023/07/19 00:50:47;;;;;;;;;;;;;;;;;;1271317;23;19905;-21
2023/07/19 00:51:17;;;;;;;;;;;;;;;;;;1271284;23;19905;-20
2023/07/19 00:51:47;;;;;;;;;;;;;;;;;;1271397;23;19966;-20
2023/07/19 00:52:17;;;;;;;;;;;;;;;;;;1271210;23;19911;-19
2023/07/19 00:52:47;;;;;;;;;;;;;;;;;;1271335;23;20217;-19
2023/07/19 00:53:18;;;;;;;;;;;;;;;;;;1271497;23;19905;-21
2023/07/19 00:53:48;;;;;;;;;;;;;;;;;;1270945;23;19911;-20
2023/07/19 00:54:18;;;;;;;;;;;;;;;;;;1271212;23;19985;-20
2023/07/19 00:54:49;;;;;;;;;;;;;;;;;;1271238;23;19905;-20
2023/07/19 00:55:21;;;;;;;;;;;;;;;;;;1271363;23;19908;-22
2023/07/19 00:55:52;;;;;;;;;;;;;;;;;;1271244;23;20314;-18
2023/07/19 00:56:22;;;;;;;;;;;;;;;;;;1271163;23;19951;-21
2023/07/19 00:56:52;;;;;;;;;;;;;;;;;;1271231;23;19983;-22
2023/07/19 00:57:23;;;;;;;;;;;;;;;;;;1271499;23;20233;-21
2023/07/19 00:57:53;;;;;;;;;;;;;;;;;;1271225;23;19905;-21
2023/07/19 00:58:23;;;;;;;;;;;;;;;;;;1271266;23;19936;-20
2023/07/19 00:58:56;;;;;;;;;;;;;;;;;;1271185;23;19912;-19
2023/07/19 00:59:26;;;;;;;;;;;;;;;;;;1271622;23;19912;-21
2023/07/19 00:59:57;;;;;;;;;;;;;;;;;;1270614;23;20308;-20
2023/07/19 01:00:27;;;;;;;;;;;;;;;;;;1270445;23;19908;-20
2023/07/19 01:00:57;;;;;;;;;;;;;;;;;;1270906;23;19901;-21
2023/07/19 01:01:27;;;;;;;;;;;;;;;;;;1271440;23;19904;-20
2023/07/19 01:01:58;;;;;;;;;;;;;;;;;;1271051;23;19916;-19
2023/07/19 01:02:28;;;;;;;;;;;;;;;;;;1271123;23;19905;-22
2023/07/19 01:02:59;;;;;;;;;;;;;;;;;;1271121;23;20328;-18
2023/07/19 01:03:29;;;;;;;;;;;;;;;;;;1271498;23;20007;-22
2023/07/19 01:03:59;;;;;;;;;;;;;;;;;;1271171;23;20331;-22
2023/07/19 01:04:29;;;;;;;;;;;;;;;;;;1271296;23;19927;-18
2023/07/19 01:05:00;;;;;;;;;;;;;;;;;;1271228;23;20016;-20
2023/07/19 01:05:30;;;;;;;;;;;;;;;;;;1271446;23;19999;-20
2023/07/19 01:06:01;;;;;;;;;;;;;;;;;;1270968;23;19979;-20
2023/07/19 01:06:31;;;;;;;;;;;;;;;;;;1271171;23;19952;-20
2023/07/19 01:07:01;;;;;;;;;;;;;;;;;;1271180;23;19904;-20
2023/07/19 01:07:31;;;;;;;;;;;;;;;;;;1271520;23;19905;-19
2023/07/19 01:08:02;;;;;;;;;;;;;;;;;;1270985;23;19911;-20
2023/07/19 01:08:32;;;;;;;;;;;;;;;;;;1271268;23;19904;-22
2023/07/19 01:09:02;;;;;;;;;;;;;;;;;;1271095;23;19913;-18
2023/07/19 01:09:32;;;;;;;;;;;;;;;;;;1271546;23;19913;-20
2023/07/19 01:10:03;;;;;;;;;;;;;;;;;;1271245;23;19905;-22
2023/07/19 01:10:33;;;;;;;;;;;;;;;;;;1270941;23;20003;-20
2023/07/19 01:11:03;;;;;;;;;;;;;;;;;;1271206;23;20279;-20
2023/07/19 01:11:33;;;;;;;;;;;;;;;;;;1271400;23;20240;-18
2023/07/19 01:12:04;;;;;;;;;;;;;;;;;;1271131;23;19974;-22
2023/07/19 01:12:34;;;;;;;;;;;;;;;;;;1271225;23;19909;-19
2023/07/19 01:13:04;;;;;;;;;;;;;;;;;;1271068;23;20288;-19
2023/07/19 01:13:35;;;;;;;;;;;;;;;;;;1271222;23;19944;-22
2023/07/19 01:14:05;;;;;;;;;;;;;;;;;;1271127;23;19911;-19
2023/07/19 01:14:35;;;;;;;;;;;;;;;;;;1271245;23;19989;-21
2023/07/19 01:15:08;;;;;;;;;;;;;;;;;;1270556;23;20011;-21
2023/07/19 01:15:42;;;;;;;;;;;;;;;;;;1269940;23;19908;-22
2023/07/19 01:16:12;;;;;;;;;;;;;;;;;;1270908;23;19905;-22
2023/07/19 01:16:44;;;;;;;;;;;;;;;;;;1270870;23;20256;-19
2023/07/19 01:17:14;;;;;;;;;;;;;;;;;;1270968;23;19905;-18
2023/07/19 01:17:44;;;;;;;;;;;;;;;;;;1271084;23;20324;-21
2023/07/19 01:18:14;;;;;;;;;;;;;;;;;;1271111;23;19939;-21
2023/07/19 01:18:45;;;;;;;;;;;;;;;;;;1271384;23;19932;-18
2023/07/19 01:19:15;;;;;;;;;;;;;;;;;;1271372;23;19911;-21
2023/07/19 01:19:46;;;;;;;;;;;;;;;;;;1271243;23;19905;-20
2023/07/19 01:20:16;;;;;;;;;;;;;;;;;;1271206;23;20431;-20
2023/07/19 01:20:46;;;;;;;;;;;;;;;;;;1271381;23;20303;-17
2023/07/19 01:21:16;;;;;;;;;;;;;;;;;;1271261;23;20236;-21
2023/07/19 01:21:47;;;;;;;;;;;;;;;;;;1271354;23;20240;-21
2023/07/19 01:22:17;;;;;;;;;;;;;;;;;;1271219;23;19904;-19
2023/07/19 01:22:47;;;;;;;;;;;;;;;;;;1271458;23;19966;-21
2023/07/19 01:23:18;;;;;;;;;;;;;;;;;;1271412;23;19905;-22
2023/07/19 01:23:48;;;;;;;;;;;;;;;;;;1271212;23;19905;-19
2023/07/19 01:24:18;;;;;;;;;;;;;;;;;;1271148;23;20316;-20
2023/07/19 01:24:48;;;;;;;;;;;;;;;;;;1264878;23;19912;-20
2023/07/19 01:25:19;;;;;;;;;;;;;;;;;;1264862;23;19950;-22
2023/07/19 01:25:49;;;;;;;;;;;;;;;;;;1264940;23;19905;-20
2023/07/19 01:26:19;;;;;;;;;;;;;;;;;;1264903;23;19912;-21
2023/07/19 01:26:50;;;;;;;;;;;;;;;;;;1271340;23;19905;-18
2023/07/19 01:27:20;;;;;;;;;;;;;;;;;;1271764;23;19983;-20
2023/07/19 01:27:50;;;;;;;;;;;;;;;;;;1271379;23;19936;-22
2023/07/19 01:28:20;;;;;;;;;;;;;;;;;;1271489;23;19911;-22
2023/07/19 01:28:50;;;;;;;;;;;;;;;;;;1271373;23;20267;-22
2023/07/19 01:29:21;;;;;;;;;;;;;;;;;;1271771;23;20331;-20
2023/07/19 01:29:51;;;;;;;;;;;;;;;;;;1271373;23;20320;-19
2023/07/19 01:30:21;;;;;;;;;;;;;;;;;;1271485;23;19905;-19
2023/07/19 01:30:51;;;;;;;;;;;;;;;;;;1271493;23;19950;-19
2023/07/19 01:31:22;;;;;;;;;;;;;;;;;;1265245;23;20189;-20
2023/07/19 01:31:52;;;;;;;;;;;;;;;;;;1264923;23;19909;-19
2023/07/19 01:32:22;;;;;;;;;;;;;;;;;;1264747;23;20330;-17
2023/07/19 01:32:53;;;;;;;;;;;;;;;;;;1264874;23;19913;-22
2023/07/19 01:33:23;;;;;;;;;;;;;;;;;;1271661;23;19990;-22
2023/07/19 01:33:54;;;;;;;;;;;;;;;;;;1270482;23;19905;-22
2023/07/19 01:34:24;;;;;;;;;;;;;;;;;;1271353;23;19928;-21
2023/07/19 01:34:54;;;;;;;;;;;;;;;;;;1270753;23;19938;-22
2023/07/19 01:35:24;;;;;;;;;;;;;;;;;;1271404;23;19904;-22
2023/07/19 01:35:54;;;;;;;;;;;;;;;;;;1271047;23;19943;-21
2023/07/19 01:36:26;;;;;;;;;;;;;;;;;;1271516;23;19983;-22
2023/07/19 01:36:56;;;;;;;;;;;;;;;;;;1271619;22;19905;-20
2023/07/19 01:37:26;;;;;;;;;;;;;;;;;;1271560;23;20325;-21
2023/07/19 01:37:56;;;;;;;;;;;;;;;;;;1271335;23;20370;-22
2023/07/19 01:38:27;;;;;;;;;;;;;;;;;;1271533;23;20359;-19
2023/07/19 01:38:57;;;;;;;;;;;;;;;;;;1271169;23;19905;-20
2023/07/19 01:39:27;;;;;;;;;;;;;;;;;;1264148;23;19905;-20
2023/07/19 01:39:58;;;;;;;;;;;;;;;;;;1264358;23;20357;-19
2023/07/19 01:40:28;;;;;;;;;;;;;;;;;;1264280;23;20428;-19
2023/07/19 01:40:59;;;;;;;;;;;;;;;;;;1264287;23;19901;-17
2023/07/19 01:41:29;;;;;;;;;;;;;;;;;;1271581;23;19912;-21
2023/07/19 01:41:59;;;;;;;;;;;;;;;;;;1270560;23;19912;-21
2023/07/19 01:42:29;;;;;;;;;;;;;;;;;;1271399;23;19912;-21
2023/07/19 01:43:00;;;;;;;;;;;;;;;;;;1271309;23;19905;-20
2023/07/19 01:43:30;;;;;;;;;;;;;;;;;;1271334;23;19905;-22
2023/07/19 01:44:00;;;;;;;;;;;;;;;;;;1271299;23;19905;-21
2023/07/19 01:44:30;;;;;;;;;;;;;;;;;;1271528;23;19953;-22
2023/07/19 01:45:01;;;;;;;;;;;;;;;;;;1271417;23;19905;-21
2023/07/19 01:45:31;;;;;;;;;;;;;;;;;;1271513;23;19908;-21
2023/07/19 01:46:01;;;;;;;;;;;;;;;;;;1271329;23;19954;-22
2023/07/19 01:46:31;;;;;;;;;;;;;;;;;;1271395;23;19904;-20
2023/07/19 01:47:02;;;;;;;;;;;;;;;;;;1271316;23;19920;-20
2023/07/19 01:47:32;;;;;;;;;;;;;;;;;;1271636;23;20388;-20
2023/07/19 01:48:02;;;;;;;;;;;;;;;;;;1271373;23;20339;-20
2023/07/19 01:48:32;;;;;;;;;;;;;;;;;;1271506;23;20015;-22
2023/07/19 01:49:03;;;;;;;;;;;;;;;;;;1270424;23;19913;-20
2023/07/19 01:49:33;;;;;;;;;;;;;;;;;;1270769;23;19917;-20
2023/07/19 01:50:03;;;;;;;;;;;;;;;;;;1271544;23;19958;-20
2023/07/19 01:50:33;;;;;;;;;;;;;;;;;;1271250;23;19908;-22
2023/07/19 01:51:05;;;;;;;;;;;;;;;;;;1271068;23;19947;-18
2023/07/19 01:51:35;;;;;;;;;;;;;;;;;;1271291;23;20233;-20
2023/07/19 01:52:05;;;;;;;;;;;;;;;;;;1271465;23;20007;-21
2023/07/19 01:52:35;;;;;;;;;;;;;;;;;;1271477;23;20454;-20
2023/07/19 01:53:06;;;;;;;;;;;;;;;;;;1271399;23;20333;-22
2023/07/19 01:53:36;;;;;;;;;;;;;;;;;;1271676;23;20309;-22
2023/07/19 01:54:06;;;;;;;;;;;;;;;;;;1271273;23;20260;-20
2023/07/19 01:54:37;;;;;;;;;;;;;;;;;;1271381;23;19940;-20
2023/07/19 01:55:07;;;;;;;;;;;;;;;;;;1271103;23;19928;-20
2023/07/19 01:55:37;;;;;;;;;;;;;;;;;;1271530;23;19912;-19
2023/07/19 01:56:07;;;;;;;;;;;;;;;;;;1271603;23;19904;-19
2023/07/19 01:56:38;;;;;;;;;;;;;;;;;;1271488;23;20011;-21
2023/07/19 01:57:08;;;;;;;;;;;;;;;;;;1271390;23;19905;-19
2023/07/19 01:57:38;;;;;;;;;;;;;;;;;;1271571;23;19930;-20
2023/07/19 01:58:09;;;;;;;;;;;;;;;;;;1271205;23;20321;-20
2023/07/19 01:58:39;;;;;;;;;;;;;;;;;;1271432;23;19915;-18
2023/07/19 01:59:09;;;;;;;;;;;;;;;;;;1271447;23;19996;-21
2023/07/19 01:59:40;;;;;;;;;;;;;;;;;;1271535;23;19915;-21
2023/07/19 02:00:10;;;;;;;;;;;;;;;;;;1271360;23;19904;-20
2023/07/19 02:00:40;;;;;;;;;;;;;;;;;;1271470;23;20329;-21
2023/07/19 02:01:10;;;;;;;;;;;;;;;;;;1271484;23;20241;-20
2023/07/19 02:01:41;;;;;;;;;;;;;;;;;;1271181;23;19908;-22
2023/07/19 02:02:11;;;;;;;;;;;;;;;;;;1271470;23;19931;-21
2023/07/19 02:02:41;;;;;;;;;;;;;;;;;;1271464;23;19909;-22
2023/07/19 02:03:11;;;;;;;;;;;;;;;;;;1271579;23;19912;-20
2023/07/19 02:03:41;;;;;;;;;;;;;;;;;;1271319;23;19908;-19
2023/07/19 02:04:12;;;;;;;;;;;;;;;;;;1271437;23;19905;-19
2023/07/19 02:04:42;;;;;;;;;;;;;;;;;;1271500;23;19908;-22
2023/07/19 02:05:12;;;;;;;;;;;;;;;;;;1271387;23;19947;-21
2023/07/19 02:05:43;;;;;;;;;;;;;;;;;;1271433;23;19909;-18
2023/07/19 02:06:13;;;;;;;;;;;;;;;;;;1271024;23;19959;-20
2023/07/19 02:06:43;;;;;;;;;;;;;;;;;;1271463;23;20346;-22
2023/07/19 02:07:13;;;;;;;;;;;;;;;;;;1271445;23;19904;-22
2023/07/19 02:07:44;;;;;;;;;;;;;;;;;;1271311;23;19911;-20
2023/07/19 02:08:15;;;;;;;;;;;;;;;;;;1270452;23;19912;-21
2023/07/19 02:08:45;;;;;;;;;;;;;;;;;;1270828;23;19950;-22
2023/07/19 02:09:17;;;;;;;;;;;;;;;;;;1271501;23;19904;-21
2023/07/19 02:09:48;;;;;;;;;;;;;;;;;;1271069;23;19905;-21
2023/07/19 02:10:18;;;;;;;;;;;;;;;;;;1271133;23;20246;-21
2023/07/19 02:10:48;;;;;;;;;;;;;;;;;;1271342;23;19987;-19
2023/07/19 02:11:18;;;;;;;;;;;;;;;;;;1271672;23;20034;-20
2023/07/19 02:11:49;;;;;;;;;;;;;;;;;;1271183;23;20402;-19
2023/07/19 02:12:19;;;;;;;;;;;;;;;;;;1271479;23;19910;-22
2023/07/19 02:12:49;;;;;;;;;;;;;;;;;;1271400;23;20361;-20
2023/07/19 02:13:20;;;;;;;;;;;;;;;;;;1269947;23;20222;-19
2023/07/19 02:13:50;;;;;;;;;;;;;;;;;;1270875;23;19905;-22
2023/07/19 02:14:20;;;;;;;;;;;;;;;;;;1271057;23;19912;-22
2023/07/19 02:14:50;;;;;;;;;;;;;;;;;;1270675;23;20287;-20
2023/07/19 02:15:20;;;;;;;;;;;;;;;;;;1271099;23;19927;-21
2023/07/19 02:15:51;;;;;;;;;;;;;;;;;;1270871;23;19912;-21
2023/07/19 02:16:21;;;;;;;;;;;;;;;;;;1271151;23;19979;-21
2023/07/19 02:16:51;;;;;;;;;;;;;;;;;;1270683;23;19953;-21
2023/07/19 02:17:21;;;;;;;;;;;;;;;;;;1270773;23;19905;-22
2023/07/19 02:17:52;;;;;;;;;;;;;;;;;;1271045;23;19904;-22
2023/07/19 02:18:22;;;;;;;;;;;;;;;;;;1271293;23;19905;-21
2023/07/19 02:18:52;;;;;;;;;;;;;;;;;;1271093;23;19927;-21
2023/07/19 02:19:23;;;;;;;;;;;;;;;;;;1271113;23;20245;-20
2023/07/19 02:19:53;;;;;;;;;;;;;;;;;;1271015;23;19991;-20
2023/07/19 02:20:24;;;;;;;;;;;;;;;;;;1270896;23;19905;-18
2023/07/19 02:20:55;;;;;;;;;;;;;;;;;;1270597;23;19990;-20
2023/07/19 02:21:25;;;;;;;;;;;;;;;;;;1271180;23;19904;-21
2023/07/19 02:21:55;;;;;;;;;;;;;;;;;;1271064;23;20535;-22
2023/07/19 02:22:26;;;;;;;;;;;;;;;;;;1271351;23;20344;-19
2023/07/19 02:22:56;;;;;;;;;;;;;;;;;;1271128;23;20241;-19
2023/07/19 02:23:26;;;;;;;;;;;;;;;;;;1271129;23;20276;-20
2023/07/19 02:23:57;;;;;;;;;;;;;;;;;;1270695;23;20289;-20
2023/07/19 02:24:27;;;;;;;;;;;;;;;;;;1271205;23;19911;-22
2023/07/19 02:24:58;;;;;;;;;;;;;;;;;;1268635;23;19947;-22
2023/07/19 02:25:28;;;;;;;;;;;;;;;;;;1269897;23;19966;-21
2023/07/19 02:25:58;;;;;;;;;;;;;;;;;;1269736;23;19901;-20
2023/07/19 02:26:28;;;;;;;;;;;;;;;;;;1270839;23;20336;-20
2023/07/19 02:26:59;;;;;;;;;;;;;;;;;;1270892;23;19904;-22
2023/07/19 02:27:29;;;;;;;;;;;;;;;;;;1270855;23;19914;-18
2023/07/19 02:27:59;;;;;;;;;;;;;;;;;;1271014;23;19987;-21
2023/07/19 02:28:30;;;;;;;;;;;;;;;;;;1271399;23;20349;-22
2023/07/19 02:29:00;;;;;;;;;;;;;;;;;;1270753;23;20352;-20
2023/07/19 02:29:30;;;;;;;;;;;;;;;;;;1271208;23;19904;-18
2023/07/19 02:30:00;;;;;;;;;;;;;;;;;;1271200;23;19991;-21
2023/07/19 02:30:31;;;;;;;;;;;;;;;;;;1271102;23;19987;-22
2023/07/19 02:31:01;;;;;;;;;;;;;;;;;;1270855;23;19912;-20
2023/07/19 02:31:31;;;;;;;;;;;;;;;;;;1271236;23;20041;-22
2023/07/19 02:32:02;;;;;;;;;;;;;;;;;;1270900;23;19928;-21
2023/07/19 02:32:32;;;;;;;;;;;;;;;;;;1271303;23;19912;-20
2023/07/19 02:33:02;;;;;;;;;;;;;;;;;;1271096;23;19992;-22
2023/07/19 02:33:33;;;;;;;;;;;;;;;;;;1271172;23;19919;-22
2023/07/19 02:34:03;;;;;;;;;;;;;;;;;;1271080;23;19950;-19
2023/07/19 02:34:33;;;;;;;;;;;;;;;;;;1271158;23;19909;-22
2023/07/19 02:35:04;;;;;;;;;;;;;;;;;;1271253;23;19908;-22
2023/07/19 02:35:34;;;;;;;;;;;;;;;;;;1270140;23;19936;-21
2023/07/19 02:36:05;;;;;;;;;;;;;;;;;;1270255;23;19905;-20
2023/07/19 02:36:35;;;;;;;;;;;;;;;;;;1270996;23;19912;-21
2023/07/19 02:37:05;;;;;;;;;;;;;;;;;;1270753;23;19905;-22
2023/07/19 02:37:36;;;;;;;;;;;;;;;;;;1271136;23;19922;-18
2023/07/19 02:38:06;;;;;;;;;;;;;;;;;;1271157;23;20279;-22
2023/07/19 02:38:36;;;;;;;;;;;;;;;;;;1271038;23;19931;-20
2023/07/19 02:39:06;;;;;;;;;;;;;;;;;;1270983;23;19910;-22
2023/07/19 02:39:37;;;;;;;;;;;;;;;;;;1271082;23;20360;-21
2023/07/19 02:40:07;;;;;;;;;;;;;;;;;;1271118;23;20372;-21
2023/07/19 02:40:37;;;;;;;;;;;;;;;;;;1271182;23;20035;-18
2023/07/19 02:41:10;;;;;;;;;;;;;;;;;;1270998;23;19992;-22
2023/07/19 02:41:40;;;;;;;;;;;;;;;;;;1271115;23;19909;-22
2023/07/19 02:42:10;;;;;;;;;;;;;;;;;;1270780;23;20313;-22
2023/07/19 02:42:40;;;;;;;;;;;;;;;;;;1271171;23;19992;-20
2023/07/19 02:43:10;;;;;;;;;;;;;;;;;;1271051;23;19991;-20
2023/07/19 02:43:41;;;;;;;;;;;;;;;;;;1270964;23;19908;-21
2023/07/19 02:44:11;;;;;;;;;;;;;;;;;;1271027;23;20423;-21
2023/07/19 02:44:41;;;;;;;;;;;;;;;;;;1271091;23;19999;-19
2023/07/19 02:45:12;;;;;;;;;;;;;;;;;;1270539;23;19995;-22
2023/07/19 02:45:42;;;;;;;;;;;;;;;;;;1271031;23;20325;-22
2023/07/19 02:46:12;;;;;;;;;;;;;;;;;;1271031;23;20381;-20
2023/07/19 02:46:42;;;;;;;;;;;;;;;;;;1271348;23;20332;-22
2023/07/19 02:47:13;;;;;;;;;;;;;;;;;;1271290;23;20343;-22
2023/07/19 02:47:43;;;;;;;;;;;;;;;;;;1271253;23;20222;-22
2023/07/19 02:48:13;;;;;;;;;;;;;;;;;;1271059;23;19930;-20
2023/07/19 02:48:43;;;;;;;;;;;;;;;;;;1271219;23;19911;-20
2023/07/19 02:49:14;;;;;;;;;;;;;;;;;;1270916;23;20240;-20
2023/07/19 02:49:44;;;;;;;;;;;;;;;;;;1271270;23;19987;-22
2023/07/19 02:50:14;;;;;;;;;;;;;;;;;;1271216;23;19941;-21
2023/07/19 02:50:45;;;;;;;;;;;;;;;;;;1271352;23;19904;-22
2023/07/19 02:51:15;;;;;;;;;;;;;;;;;;1271291;23;20322;-21
2023/07/19 02:51:46;;;;;;;;;;;;;;;;;;1271027;23;19912;-19
2023/07/19 02:52:16;;;;;;;;;;;;;;;;;;1271382;23;19913;-21
2023/07/19 02:52:46;;;;;;;;;;;;;;;;;;1270950;23;20210;-20
2023/07/19 02:53:17;;;;;;;;;;;;;;;;;;1271705;23;20240;-19
2023/07/19 02:53:47;;;;;;;;;;;;;;;;;;1270696;23;19946;-18
2023/07/19 02:54:17;;;;;;;;;;;;;;;;;;1271421;23;19904;-20
2023/07/19 02:54:48;;;;;;;;;;;;;;;;;;1271400;23;19953;-21
2023/07/19 02:55:18;;;;;;;;;;;;;;;;;;1271534;23;19931;-20
2023/07/19 02:55:48;;;;;;;;;;;;;;;;;;1271307;23;20333;-22
2023/07/19 02:56:18;;;;;;;;;;;;;;;;;;1271474;23;19991;-21
2023/07/19 02:56:51;;;;;;;;;;;;;;;;;;1270392;22;20226;-20
2023/07/19 02:57:22;;;;;;;;;;;;;;;;;;1271409;23;19912;-22
2023/07/19 02:57:52;;;;;;;;;;;;;;;;;;1271170;23;20379;-21
2023/07/19 02:58:23;;;;;;;;;;;;;;;;;;1271183;23;19974;-22
2023/07/19 02:58:53;;;;;;;;;;;;;;;;;;1271179;23;19905;-20
2023/07/19 02:59:23;;;;;;;;;;;;;;;;;;1271569;23;20396;-19
2023/07/19 02:59:53;;;;;;;;;;;;;;;;;;1271007;23;19927;-19
2023/07/19 03:00:24;;;;;;;;;;;;;;;;;;1271306;23;19905;-22
2023/07/19 03:00:54;;;;;;;;;;;;;;;;;;1271298;23;19954;-21
2023/07/19 03:01:25;;;;;;;;;;;;;;;;;;1271482;23;19987;-22
2023/07/19 03:01:55;;;;;;;;;;;;;;;;;;1270991;23;19911;-22
2023/07/19 03:02:25;;;;;;;;;;;;;;;;;;1271468;23;20321;-20
2023/07/19 03:02:56;;;;;;;;;;;;;;;;;;1271228;23;20378;-20
2023/07/19 03:03:26;;;;;;;;;;;;;;;;;;1271504;23;19904;-20
2023/07/19 03:03:57;;;;;;;;;;;;;;;;;;1271219;23;19953;-20
2023/07/19 03:04:27;;;;;;;;;;;;;;;;;;1271408;23;19905;-19
2023/07/19 03:04:57;;;;;;;;;;;;;;;;;;1270994;23;19997;-21
2023/07/19 03:05:28;;;;;;;;;;;;;;;;;;1271346;23;19908;-19
2023/07/19 03:05:58;;;;;;;;;;;;;;;;;;1270845;23;20259;-22
2023/07/19 03:06:28;;;;;;;;;;;;;;;;;;1271350;23;19906;-22
2023/07/19 03:06:59;;;;;;;;;;;;;;;;;;1271245;23;19991;-21
2023/07/19 03:07:29;;;;;;;;;;;;;;;;;;1271133;23;19913;-22
2023/07/19 03:08:00;;;;;;;;;;;;;;;;;;1271193;23;19905;-20
2023/07/19 03:08:30;;;;;;;;;;;;;;;;;;1271376;23;20387;-20
2023/07/19 03:09:00;;;;;;;;;;;;;;;;;;1270819;23;20019;-19
2023/07/19 03:09:30;;;;;;;;;;;;;;;;;;1271221;23;19928;-22
2023/07/19 03:10:01;;;;;;;;;;;;;;;;;;1271255;23;19954;-22
2023/07/19 03:10:31;;;;;;;;;;;;;;;;;;1271296;23;19915;-21
2023/07/19 03:11:01;;;;;;;;;;;;;;;;;;1271127;23;19908;-22
2023/07/19 03:11:31;;;;;;;;;;;;;;;;;;1271383;23;19905;-22
2023/07/19 03:12:02;;;;;;;;;;;;;;;;;;1271143;23;19911;-22
2023/07/19 03:12:32;;;;;;;;;;;;;;;;;;1271412;23;19958;-22
2023/07/19 03:13:02;;;;;;;;;;;;;;;;;;1271265;23;19912;-22
2023/07/19 03:13:33;;;;;;;;;;;;;;;;;;1271437;23;20231;-20
2023/07/19 03:14:03;;;;;;;;;;;;;;;;;;1271254;23;19984;-20
2023/07/19 03:14:33;;;;;;;;;;;;;;;;;;1271395;23;20324;-22
2023/07/19 03:15:03;;;;;;;;;;;;;;;;;;1271323;23;19962;-21
2023/07/19 03:15:34;;;;;;;;;;;;;;;;;;1271323;23;19913;-20
2023/07/19 03:16:04;;;;;;;;;;;;;;;;;;1271382;23;19905;-21
2023/07/19 03:16:34;;;;;;;;;;;;;;;;;;1271287;23;19916;-21
2023/07/19 03:17:05;;;;;;;;;;;;;;;;;;1271285;23;19980;-21
2023/07/19 03:17:35;;;;;;;;;;;;;;;;;;1271336;23;19930;-20
2023/07/19 03:18:05;;;;;;;;;;;;;;;;;;1271326;23;19905;-20
2023/07/19 03:18:35;;;;;;;;;;;;;;;;;;1271338;23;19909;-20
2023/07/19 03:19:06;;;;;;;;;;;;;;;;;;1270932;23;19920;-21
2023/07/19 03:19:36;;;;;;;;;;;;;;;;;;1271191;23;19965;-22
2023/07/19 03:20:06;;;;;;;;;;;;;;;;;;1271317;23;19905;-22
2023/07/19 03:20:36;;;;;;;;;;;;;;;;;;1271311;23;20320;-21
2023/07/19 03:21:07;;;;;;;;;;;;;;;;;;1270829;23;20325;-21
2023/07/19 03:21:37;;;;;;;;;;;;;;;;;;1269867;23;20321;-19
2023/07/19 03:22:07;;;;;;;;;;;;;;;;;;1270599;23;19911;-20
2023/07/19 03:22:37;;;;;;;;;;;;;;;;;;1271150;23;20416;-22
2023/07/19 03:23:08;;;;;;;;;;;;;;;;;;1271149;23;19905;-21
2023/07/19 03:23:38;;;;;;;;;;;;;;;;;;1270774;23;20304;-19
2023/07/19 03:24:09;;;;;;;;;;;;;;;;;;1270596;23;19904;-20
2023/07/19 03:24:39;;;;;;;;;;;;;;;;;;1271091;23;20222;-21
2023/07/19 03:25:09;;;;;;;;;;;;;;;;;;1271056;23;19985;-19
2023/07/19 03:25:40;;;;;;;;;;;;;;;;;;1270695;23;19991;-21
2023/07/19 03:26:10;;;;;;;;;;;;;;;;;;1271143;23;19904;-21
2023/07/19 03:26:40;;;;;;;;;;;;;;;;;;1271041;23;19951;-20
2023/07/19 03:27:10;;;;;;;;;;;;;;;;;;1271158;23;20263;-20